Flight Track Log - Related Links

Times and Time Zones

All times are in EDT time to prevent confusion due to time zone crossing. See the AAL1326 flight status page for this flight to view local times or setup timezone preferences in your user account.


Time Position Orientation Groundspeed Altitude Reporting Facility
EDT Latitude Longitude Course Direction KTS MPH feet Rate Location/Type
Mon 07:19:37 PM 41.9470 -87.9070 217° Southwest 156 180 1,600  Level FlightAware ADS-B
Mon 07:19:52 PM 41.9380 -87.9100 194° South 150 173 2,200 1,800 Climbing FlightAware ADS-B
Mon 07:20:12 PM 41.9240 -87.9090 177° South 2,700 1,636 Climbing FlightAware ADS-B
Mon 07:20:47 PM 41.8920 -87.9070 177° South 208 239 3,700 1,800 Climbing FlightAware ADS-B
Mon 07:21:02 PM 41.8750 -87.9060 177° South 228 262 4,200 2,000 Climbing FlightAware ADS-B
Mon 07:21:32 PM 41.8450 -87.9040 177° South 245 282 5,200 2,509 Climbing FlightAware ADS-B
Mon 07:21:57 PM 41.8140 -87.9020 177° South 251 289 6,500 2,727 Climbing FlightAware ADS-B
Mon 07:22:27 PM 41.7780 -87.9000 178° South 270 311 7,700 2,509 Climbing FlightAware ADS-B
Mon 07:22:52 PM 41.7480 -87.8980 177° South 278 320 8,800 2,743 Climbing FlightAware ADS-B
Mon 07:23:37 PM 41.6890 -87.8940 177° South 288 331 10,900 2,682 Climbing FlightAware ADS-B
Mon 07:24:17 PM 41.6310 -87.8910 178° South 307 353 12,600 2,025 Climbing FlightAware ADS-B
Mon 07:24:57 PM 41.5700 -87.8870 177° South 347 399 13,600 1,553 Climbing FlightAware ADS-B
Mon 07:25:42 PM 41.4940 -87.8820 177° South 387 445 14,800 2,118 Climbing FlightAware ADS-B
Mon 07:26:22 PM 41.4210 -87.8780 178° South 399 459 16,600 2,824 Climbing FlightAware ADS-B
Mon 07:27:07 PM 41.3370 -87.8840 183° South 395 455 18,800 2,753 Climbing FlightAware ADS-B
Mon 07:27:47 PM 41.2650 -87.8910 184° South 399 459 20,500 2,337 Climbing FlightAware ADS-B
Mon 07:28:42 PM 41.1590 -87.8900 180° South 415 478 22,500 2,220 Climbing FlightAware ADS-B
Mon 07:29:27 PM 41.0760 -87.8870 178° South 415 478 24,200 1,976 Climbing FlightAware ADS-B
Mon 07:30:07 PM 40.9970 -87.8830 178° South 426 490 25,300 1,694 Climbing FlightAware ADS-B
Mon 07:30:52 PM 40.9120 -87.8630 170° South 435 501 26,600 1,835 Climbing FlightAware ADS-B
Mon 07:31:32 PM 40.8310 -87.8410 168° South 438 504 27,900 1,760 Climbing FlightAware ADS-B
Mon 07:32:07 PM 40.7640 -87.8230 168° South 439 505 28,800 1,350 Climbing FlightAware ADS-B
Mon 07:32:52 PM 40.6650 -87.7980 169° South 453 521 29,700 1,000 Climbing FlightAware ADS-B
Mon 07:33:37 PM 40.5720 -87.7740 169° South 467 537 30,300 1,067 Climbing FlightAware ADS-B
Mon 07:34:22 PM 40.4770 -87.7490 169° South 469 540 31,300 1,482 Climbing FlightAware ADS-B
Mon 07:35:02 PM 40.3930 -87.7280 169° South 464 534 32,400 1,425 Climbing FlightAware ADS-B
Mon 07:35:42 PM 40.3090 -87.7060 169° South 465 535 33,200 706 Climbing FlightAware ADS-B
Mon 07:36:27 PM 40.2220 -87.6820 168° South 466 536 33,400 1,271 Climbing FlightAware ADS-B
Mon 07:37:07 PM 40.1280 -87.6590 169° South 462 532 35,000 1,200 Climbing FlightAware ADS-B
Mon 07:37:47 PM 40.0470 -87.6380 169° South 459 528 35,000  Level FlightAware ADS-B
Mon 07:38:27 PM 39.9610 -87.6150 168° South 458 527 35,000 353 Level FlightAware ADS-B
Mon 07:39:12 PM 39.8720 -87.5920 169° South 454 522 35,500 1,067 Climbing FlightAware ADS-B
Mon 07:39:57 PM 39.7780 -87.5670 168° South 449 517 36,600 1,059 Climbing FlightAware ADS-B
Mon 07:40:37 PM 39.6960 -87.5450 168° South 448 516 37,000 282 Climbing FlightAware ADS-B
Mon 07:41:22 PM 39.6080 -87.5240 170° South 447 514 37,000  Level FlightAware ADS-B
Mon 07:42:02 PM 39.5210 -87.5030 169° South 448 516 37,000  Level FlightAware ADS-B
Mon 07:42:42 PM 39.4400 -87.4830 169° South 449 517 37,000  Level FlightAware ADS-B
Mon 07:43:27 PM 39.3510 -87.4610 169° South 449 517 37,000  Level FlightAware ADS-B
Mon 07:44:02 PM 39.2840 -87.4440 169° South 448 516 37,000  Level FlightAware ADS-B
Mon 07:44:52 PM 39.1780 -87.4170 169° South 447 514 37,000  Level FlightAware ADS-B
Mon 07:45:32 PM 39.0940 -87.3960 169° South 448 516 37,000  Level FlightAware ADS-B
Mon 07:46:12 PM 39.0130 -87.3760 169° South 448 516 37,000  Level FlightAware ADS-B
Mon 07:46:57 PM 38.9220 -87.3530 169° South 448 516 37,000  Level FlightAware ADS-B
Mon 07:47:37 PM 38.8400 -87.3330 169° South 448 516 37,000  Level FlightAware ADS-B
Mon 07:48:22 PM 38.7480 -87.3100 169° South 446 513 37,000  Level FlightAware ADS-B
Mon 07:49:02 PM 38.6660 -87.2890 169° South 446 513 37,000  Level FlightAware ADS-B
Mon 07:49:42 PM 38.5840 -87.2690 169° South 447 514 37,000  Level FlightAware ADS-B
Mon 07:50:27 PM 38.4920 -87.2470 169° South 448 516 37,000  Level FlightAware ADS-B
Mon 07:51:07 PM 38.4140 -87.2270 169° South 450 518 37,000  Level FlightAware ADS-B
Mon 07:51:52 PM 38.3210 -87.2050 169° South 450 518 37,000  Level FlightAware ADS-B
Mon 07:52:32 PM 38.2390 -87.1840 169° South 450 518 37,000  Level FlightAware ADS-B
Mon 07:53:12 PM 38.1560 -87.1640 169° South 451 519 37,000  Level FlightAware ADS-B
Mon 07:53:57 PM 38.0660 -87.1420 169° South 451 519 37,000  Level FlightAware ADS-B
Mon 07:54:37 PM 37.9820 -87.1220 169° South 451 519 37,000  Level FlightAware ADS-B
Mon 07:55:17 PM 37.9040 -87.0940 164° South 455 524 37,000  Level FlightAware ADS-B
Mon 07:56:02 PM 37.8190 -87.0320 150° Southeast 458 527 37,000  Level FlightAware ADS-B
Mon 07:56:42 PM 37.7490 -86.9760 148° Southeast 456 525 37,000  Level FlightAware ADS-B
Mon 07:57:22 PM 37.6760 -86.9190 148° Southeast 456 525 37,000  Level FlightAware ADS-B
Mon 07:58:07 PM 37.5970 -86.8570 148° Southeast 454 522 37,000  Level FlightAware ADS-B
Mon 07:58:47 PM 37.5240 -86.8000 148° Southeast 453 521 37,000  Level FlightAware ADS-B
Mon 07:59:32 PM 37.4450 -86.7380 148° Southeast 450 518 37,000  Level FlightAware ADS-B
Mon 07:59:51 PM 37.4096 -86.7104 148° Southeast 451 519 37,000  Level FlightAware ADS-B
Mon 08:00:47 PM 37.3170 -86.6380 148° Southeast 450 518 37,000  Level FlightAware ADS-B
Mon 08:01:37 PM 37.2203 -86.5629 148° Southeast 452 520 37,000  Level FlightAware ADS-B
Mon 08:02:09 PM 37.1642 -86.5195 148° Southeast 451 519 37,000  Level FlightAware ADS-B
Mon 08:02:39 PM 37.1109 -86.4784 148° Southeast 451 519 37,000  Level FlightAware ADS-B
Mon 08:03:09 PM 37.0568 -86.4367 148° Southeast 452 520 37,000  Level FlightAware ADS-B
Mon 08:03:40 PM 37.0030 -86.3951 148° Southeast 452 520 37,000  Level FlightAware ADS-B
Mon 08:04:10 PM 36.9489 -86.3536 148° Southeast 452 520 37,000  Level FlightAware ADS-B
Mon 08:04:41 PM 36.8944 -86.3118 148° Southeast 452 520 37,000  Level FlightAware ADS-B
Mon 08:05:22 PM 36.8260 -86.2600 149° Southeast 452 520 37,000  Level FlightAware ADS-B
Mon 08:05:25 PM 36.8162 -86.2518 146° Southeast 453 521 37,000  Level FlightAware ADS-B
Mon 08:06:02 PM 36.7520 -86.2020 148° Southeast 452 520 37,000  Level FlightAware ADS-B
Mon 08:06:09 PM 36.7369 -86.1912 150° Southeast 453 521 37,000  Level FlightAware ADS-B
Mon 08:06:43 PM 36.6756 -86.1445 149° Southeast 453 521 37,000  Level FlightAware ADS-B
Mon 08:07:14 PM 36.6217 -86.1034 149° Southeast 453 521 37,000  Level FlightAware ADS-B
Mon 08:07:44 PM 36.5673 -86.0621 149° Southeast 452 520 37,000  Level FlightAware ADS-B
Mon 08:08:16 PM 36.5099 -86.0185 149° Southeast 452 520 37,000  Level FlightAware ADS-B
Mon 08:08:52 PM 36.4480 -85.9710 148° Southeast 451 519 37,000  Level FlightAware ADS-B
Mon 08:09:06 PM 36.4211 -85.9513 149° Southeast 452 520 37,000  Level FlightAware ADS-B
Mon 08:09:38 PM 36.3647 -85.9088 149° Southeast 450 518 37,000  Level FlightAware ADS-B
Mon 08:10:10 PM 36.3067 -85.8652 149° Southeast 448 516 37,000  Level FlightAware ADS-B
Mon 08:10:42 PM 36.2509 -85.8232 149° Southeast 447 514 37,000  Level FlightAware ADS-B
Mon 08:11:13 PM 36.1964 -85.7823 149° Southeast 446 513 37,000  Level FlightAware ADS-B
Mon 08:11:43 PM 36.1431 -85.7424 149° Southeast 444 511 37,000  Level FlightAware ADS-B
Mon 08:12:13 PM 36.0902 -85.7027 149° Southeast 442 509 37,000  Level FlightAware ADS-B
Mon 08:12:43 PM 36.0377 -85.6634 149° Southeast 442 509 37,000  Level FlightAware ADS-B
Mon 08:13:14 PM 35.9848 -85.6241 149° Southeast 441 507 37,000  Level FlightAware ADS-B
Mon 08:13:44 PM 35.9324 -85.5851 149° Southeast 441 507 37,000  Level FlightAware ADS-B
Mon 08:14:15 PM 35.8773 -85.5441 149° Southeast 441 507 37,000  Level FlightAware ADS-B
Mon 08:14:48 PM 35.8197 -85.5013 149° Southeast 441 507 37,000  Level FlightAware ADS-B
Mon 08:15:19 PM 35.7664 -85.4618 149° Southeast 441 507 37,000  Level FlightAware ADS-B
Mon 08:15:49 PM 35.7125 -85.4220 149° Southeast 441 507 37,000  Level FlightAware ADS-B
Mon 08:16:20 PM 35.6593 -85.3828 149° Southeast 442 509 37,000  Level FlightAware ADS-B
Mon 08:16:56 PM 35.5951 -85.3353 149° Southeast 443 510 37,000  Level FlightAware ADS-B
Mon 08:17:27 PM 35.5411 -85.2955 149° Southeast 445 512 37,000  Level FlightAware ADS-B
Mon 08:17:57 PM 35.4880 -85.2564 149° Southeast 446 513 37,000  Level FlightAware ADS-B
Mon 08:18:27 PM 35.4400 -85.2220 150° Southeast 446 513 37,000  Level FlightAware ADS-B
Mon 08:18:42 PM 35.4083 -85.1980 148° Southeast 448 516 37,000  Level FlightAware ADS-B
Mon 08:19:14 PM 35.3505 -85.1557 149° Southeast 449 517 37,000  Level FlightAware ADS-B
Mon 08:19:58 PM 35.2729 -85.0989 149° Southeast 449 517 37,000  Level FlightAware ADS-B
Mon 08:20:28 PM 35.2187 -85.0595 149° Southeast 452 520 37,000  Level FlightAware ADS-B
Mon 08:20:58 PM 35.1644 -85.0200 149° Southeast 453 521 37,000  Level FlightAware ADS-B
Mon 08:21:30 PM 35.1076 -84.9787 149° Southeast 454 522 37,000  Level FlightAware ADS-B
Mon 08:22:02 PM 35.0502 -84.9371 149° Southeast 455 524 37,000  Level FlightAware ADS-B
Mon 08:22:32 PM 34.9944 -84.8968 149° Southeast 456 525 37,000  Level FlightAware ADS-B
Mon 08:23:03 PM 34.9392 -84.8569 149° Southeast 455 524 37,000  Level FlightAware ADS-B
Mon 08:24:02 PM 34.8370 -84.7830 149° Southeast 450 518 37,000  Level FlightAware ADS-B
Mon 08:24:13 PM 34.8126 -84.7652 149° Southeast 455 524 37,000  Level FlightAware ADS-B
Mon 08:24:57 PM 34.7355 -84.7097 149° Southeast 448 516 37,000  Level FlightAware ADS-B
Mon 08:25:27 PM 34.6818 -84.6713 150° Southeast 448 516 37,000  Level FlightAware ADS-B
Mon 08:25:58 PM 34.6255 -84.6310 149° Southeast 448 516 37,000  Level FlightAware ADS-B
Mon 08:26:29 PM 34.5710 -84.5923 150° Southeast 449 517 37,000  Level FlightAware ADS-B
Mon 08:26:59 PM 34.5166 -84.5532 149° Southeast 450 518 37,000  Level FlightAware ADS-B
Mon 08:27:29 PM 34.4625 -84.5143 149° Southeast 450 518 37,000  Level FlightAware ADS-B
Mon 08:28:00 PM 34.4076 -84.4752 150° Southeast 451 519 37,000  Level FlightAware ADS-B
Mon 08:28:30 PM 34.3534 -84.4369 150° Southeast 451 519 37,000  Level FlightAware ADS-B
Mon 08:29:03 PM 34.2935 -84.3943 150° Southeast 451 519 37,000  Level FlightAware ADS-B
Mon 08:29:37 PM 34.2380 -84.3550 150° Southeast 451 519 37,000  Level FlightAware ADS-B
Mon 08:30:42 PM 34.1210 -84.2720 150° Southeast 451 519 37,000  Level FlightAware ADS-B
Mon 08:34:07 PM 33.7520 -84.0130 150° Southeast 446 513 37,000  Level FlightAware ADS-B
Mon 08:34:57 PM 33.6700 -83.9550 150° Southeast 447 514 37,000  Level FlightAware ADS-B
Mon 08:35:42 PM 33.5840 -83.8950 150° Southeast 448 516 37,000  Level FlightAware ADS-B
Mon 08:36:22 PM 33.5100 -83.8440 150° Southeast 448 516 37,000  Level FlightAware ADS-B
Mon 08:37:02 PM 33.4350 -83.7970 152° Southeast 450 518 37,000 353 Level FlightAware ADS-B
Mon 08:37:47 PM 33.3490 -83.7600 160° South 453 521 37,500 706 Climbing FlightAware ADS-B
Mon 08:38:27 PM 33.2700 -83.7250 160° South 454 522 38,000 375 Climbing FlightAware ADS-B
Mon 08:39:07 PM 33.1920 -83.6910 160° South 456 525 38,000  Level FlightAware ADS-B
Mon 08:39:52 PM 33.1050 -83.6530 160° South 452 520 38,000  Level FlightAware ADS-B
Mon 08:40:27 PM 33.0350 -83.6230 160° South 453 521 38,000  Level FlightAware ADS-B
Mon 08:41:17 PM 32.9370 -83.5800 160° South 445 512 38,000  Level FlightAware ADS-B
Mon 08:41:57 PM 32.8570 -83.5450 160° South 444 511 38,000  Level FlightAware ADS-B
Mon 08:42:42 PM 32.7680 -83.5070 160° South 442 509 38,000  Level FlightAware ADS-B
Mon 08:43:22 PM 32.6930 -83.4750 160° South 447 514 38,000  Level FlightAware ADS-B
Mon 08:44:02 PM 32.6220 -83.4440 160° South 447 514 38,000  Level FlightAware ADS-B
Mon 08:44:37 PM 32.5560 -83.4160 160° South 447 514 38,000  Level FlightAware ADS-B
Mon 08:45:27 PM 32.4590 -83.3720 159° South 447 514 38,000  Level FlightAware ADS-B
Mon 08:46:07 PM 32.3940 -83.3430 159° South 447 514 38,000  Level FlightAware ADS-B
Mon 08:46:47 PM 32.3280 -83.3130 159° South 447 514 38,000  Level FlightAware ADS-B
Mon 08:47:27 PM 32.2620 -83.2830 159° South 447 514 38,000  Level FlightAware ADS-B
Mon 08:48:17 PM 32.1800 -83.2460 159° South 447 514 38,000  Level FlightAware ADS-B
Mon 08:48:57 PM 32.1150 -83.2160 159° South 447 514 38,000  Level FlightAware ADS-B
Mon 08:49:37 PM 32.0490 -83.1860 159° South 447 514 38,000  Level FlightAware ADS-B
Mon 08:50:17 PM 31.9830 -83.1560 159° South 447 514 38,000  Level FlightAware ADS-B
Mon 08:50:57 PM 31.9180 -83.1270 159° South 447 514 38,000  Level FlightAware ADS-B
Mon 08:51:47 PM 31.8360 -83.0900 159° South 447 514 38,000  Level FlightAware ADS-B
Mon 08:52:27 PM 31.7700 -83.0600 159° South 447 514 38,000  Level FlightAware ADS-B
Mon 08:53:07 PM 31.7040 -83.0300 159° South 447 514 38,000  Level FlightAware ADS-B
Mon 08:53:47 PM 31.6390 -83.0010 159° South 447 514 38,000  Level FlightAware ADS-B
Mon 08:54:27 PM 31.5730 -82.9710 159° South 447 514 38,000  Level FlightAware ADS-B
Mon 08:55:15 PM 31.2769 -82.8803 159° South 456 525 38,000  Level Jacksonville Center
Mon 08:56:15 PM 31.1664 -82.8269 158° South 458 527 38,000  Level Jacksonville Center
Mon 08:57:15 PM 31.0600 -82.7858 162° South 458 527 38,000 -50 Level Jacksonville Center
Mon 08:58:15 PM 30.9408 -82.7375 161° South 453 521 37,900  Descending Jacksonville Center
Mon 08:59:15 PM 30.8217 -82.6894 161° South 453 521 38,000 50 Climbing Jacksonville Center
Mon 09:00:15 PM 30.7006 -82.6364 159° South 458 527 38,000  Level Jacksonville Center
Mon 09:01:15 PM 30.5814 -82.5886 161° South 458 527 38,000  Level Jacksonville Center
Mon 09:02:16 PM 30.4622 -82.5528 165° South 458 527 38,000  Level Jacksonville Center
Mon 09:03:15 PM 30.3267 -82.5411 176° South 453 521 38,000 -50 Level Jacksonville Center
Mon 09:04:15 PM 30.2056 -82.5319 176° South 447 514 37,900 -350 Descending Jacksonville Center
Mon 09:05:15 PM 30.0822 -82.5228 176° South 440 506 37,300 -125 Descending Jacksonville Center
Mon 09:11:27 PM 29.3280 -82.4640 176° South 437 503 37,000 -43 Descending FlightAware ADS-B
Mon 09:12:17 PM 29.2250 -82.4570 177° South 441 507 37,000  Level FlightAware ADS-B
Mon 09:13:02 PM 29.1350 -82.4580 181° South 436 502 37,000  Level FlightAware ADS-B
Mon 09:13:42 PM 29.0510 -82.4620 182° South 440 506 37,000  Level FlightAware ADS-B
Mon 09:14:22 PM 28.9730 -82.4660 183° South 440 506 37,000  Level FlightAware ADS-B
Mon 09:15:07 PM 28.8790 -82.4700 182° South 441 507 37,000  Level FlightAware ADS-B
Mon 09:15:52 PM 28.7910 -82.4750 183° South 444 511 37,000  Level FlightAware ADS-B
Mon 09:16:32 PM 28.7070 -82.4780 182° South 446 513 37,000  Level FlightAware ADS-B
Mon 09:17:12 PM 28.6240 -82.4820 182° South 446 513 37,000  Level FlightAware ADS-B
Mon 09:17:57 PM 28.5290 -82.4860 182° South 449 517 37,000  Level FlightAware ADS-B
Mon 09:18:37 PM 28.4440 -82.4900 182° South 452 520 37,000  Level FlightAware ADS-B
Mon 09:19:22 PM 28.3520 -82.4940 182° South 452 520 37,000  Level FlightAware ADS-B
Mon 09:20:02 PM 28.2700 -82.4980 182° South 451 519 37,000  Level FlightAware ADS-B
Mon 09:20:42 PM 28.1860 -82.5020 182° South 450 518 37,000  Level FlightAware ADS-B
Mon 09:21:27 PM 28.0890 -82.5070 183° South 450 518 37,000  Level FlightAware ADS-B
Mon 09:22:07 PM 28.0090 -82.5110 183° South 450 518 37,000  Level FlightAware ADS-B
Mon 09:22:47 PM 27.9240 -82.4990 173° South 470 541 37,000  Level FlightAware ADS-B
Mon 09:23:32 PM 27.8310 -82.4650 162° South 472 543 37,000  Level FlightAware ADS-B
Mon 09:24:12 PM 27.7440 -82.4330 162° South 473 544 37,000  Level FlightAware ADS-B
Mon 09:24:57 PM 27.6540 -82.3950 159° South 483 556 37,000  Level FlightAware ADS-B
Mon 09:25:37 PM 27.5760 -82.3380 147° Southeast 494 568 37,000 -141 Level FlightAware ADS-B
Mon 09:26:22 PM 27.4950 -82.2740 145° Southeast 493 567 36,800 -600 Descending FlightAware ADS-B
Mon 09:26:57 PM 27.4280 -82.2210 145° Southeast 488 562 36,200 -975 Descending FlightAware ADS-B
Mon 09:27:42 PM 27.3460 -82.1570 145° Southeast 488 562 35,500 -1,000 Descending FlightAware ADS-B
Mon 09:28:27 PM 27.2600 -82.0890 145° Southeast 489 563 34,700 -1,906 Descending FlightAware ADS-B
Mon 09:29:07 PM 27.1850 -82.0310 145° Southeast 489 563 32,800 -2,894 Descending FlightAware ADS-B
Mon 09:29:52 PM 27.1040 -81.9670 145° Southeast 491 565 30,600 -2,753 Descending FlightAware ADS-B
Mon 09:30:32 PM 27.0290 -81.9090 145° Southeast 483 556 28,900 -2,475 Descending FlightAware ADS-B
Mon 09:31:12 PM 26.9570 -81.8530 145° Southeast 471 542 27,300 -2,329 Descending FlightAware ADS-B
Mon 09:31:57 PM 26.8780 -81.7910 145° Southeast 456 525 25,600 -2,329 Descending FlightAware ADS-B
Mon 09:32:37 PM 26.8080 -81.7360 145° Southeast 443 510 24,000 -2,250 Descending FlightAware ADS-B
Mon 09:33:17 PM 26.7430 -81.6860 146° Southeast 433 498 22,600 -2,000 Descending FlightAware ADS-B
Mon 09:33:52 PM 26.6930 -81.6480 146° Southeast 418 481 21,500 -2,118 Descending FlightAware ADS-B
Mon 09:34:42 PM 26.6070 -81.5810 145° Southeast 409 471 19,600 -2,211 Descending FlightAware ADS-B
Mon 09:35:27 PM 26.5380 -81.5280 145° Southeast 397 457 18,000 -2,118 Descending FlightAware ADS-B
Mon 09:36:07 PM 26.4790 -81.4830 146° Southeast 380 437 16,600 -2,100 Descending FlightAware ADS-B
Mon 09:36:47 PM 26.4200 -81.4370 145° Southeast 377 434 15,200 -1,976 Descending FlightAware ADS-B
Mon 09:37:32 PM 26.3570 -81.3890 146° Southeast 360 414 13,800 -1,694 Descending FlightAware ADS-B
Mon 09:38:12 PM 26.3050 -81.3410 140° Southeast 352 405 12,800 -1,341 Descending FlightAware ADS-B
Mon 09:38:57 PM 26.2690 -81.2750 121° Southeast 331 381 11,900 -1,129 Descending FlightAware ADS-B
Mon 09:39:37 PM 26.2380 -81.2160 120° Southeast 311 358 11,200 -1,050 Descending FlightAware ADS-B
Mon 09:40:17 PM 26.2090 -81.1610 120° Southeast 297 342 10,500 -1,114 Descending FlightAware ADS-B
Mon 09:40:47 PM 26.1880 -81.1210 120° Southeast 296 341 9,900 -1,091 Descending FlightAware ADS-B
Mon 09:41:12 PM 26.1710 -81.0890 121° Southeast 294 338 9,500 -982 Descending FlightAware ADS-B
Mon 09:41:42 PM 26.1500 -81.0500 121° Southeast 288 331 9,000 -1,000 Descending FlightAware ADS-B
Mon 09:42:12 PM 26.1290 -81.0120 122° Southeast 287 330 8,500 -1,000 Descending FlightAware ADS-B
Mon 09:42:42 PM 26.1090 -80.9730 120° Southeast 286 329 8,000 -764 Descending FlightAware ADS-B
Mon 09:43:07 PM 26.1020 -80.9380 103° East 286 329 7,800 -873 Descending FlightAware ADS-B
Mon 09:43:37 PM 26.0990 -80.8940 94° East 288 331 7,200 -1,309 Descending FlightAware ADS-B
Mon 09:44:02 PM 26.0970 -80.8570 93° East 285 328 6,600 -1,200 Descending FlightAware ADS-B
Mon 09:44:32 PM 26.0940 -80.8140 94° East 276 318 6,100 -700 Descending FlightAware ADS-B
Mon 09:45:02 PM 26.0880 -80.7730 99° East 253 291 5,900 -300 Descending FlightAware ADS-B
Mon 09:45:12 PM 26.0860 -80.7600 100° East 243 280 5,900 150 Level FlightAware ADS-B
Mon 09:45:42 PM 26.0820 -80.7240 97° East 238 274 6,000 133 Climbing FlightAware ADS-B
Mon 09:45:57 PM 26.0800 -80.7060 97° East 241 277 6,000  Level FlightAware ADS-B
Mon 09:46:22 PM 26.0780 -80.6750 94° East 245 282 6,000  Level FlightAware ADS-B
Mon 09:46:47 PM 26.0780 -80.6440 90° East 243 280 6,000  Level FlightAware ADS-B
Mon 09:47:32 PM 26.0780 -80.5880 90° East 239 275 6,000 -257 Level FlightAware ADS-B
Mon 09:47:57 PM 26.0780 -80.5570 90° East 234 269 5,700 -988 Descending FlightAware ADS-B
Mon 09:48:57 PM 26.0780 -80.4850 90° East 231 266 4,600 -969 Descending FlightAware ADS-B
Mon 09:50:07 PM 26.0780 -80.4040 90° East 221 254 3,600 -884 Descending FlightAware ADS-B
Mon 09:50:32 PM 26.0780 -80.3750 90° East 217 250 3,200 -686 Descending FlightAware ADS-B
Mon 09:51:17 PM 26.0780 -80.3280 90° East 192 221 2,800 -768 Descending FlightAware ADS-B
Mon 09:52:37 PM 26.0780 -80.2610 90° East 142 163 1,600 -828 Descending FlightAware ADS-B
Mon 09:53:42 PM 26.0770 -80.2160 91° East 141 162 800 -730 Descending FlightAware ADS-B
Mon 09:54:32 PM 26.0770 -80.1780 90° East 140 161 200 -450 Descending FlightAware ADS-B
Mon 09:55:02 PM 26.0770 -80.1600 90° East 141 162 200  Level FlightAware ADS-B

Login

Don't have an account? Register now (free) for customized features, flight alerts, and more!